Time;durP1;ratioP1;P1;durP2;ratioP2;P2;SDS_P1;SDS_P2;PMS_P1;PMS_P2;Temp;Humidity;BMP_temperature;BMP_pressure;BME280_temperature;BME280_humidity;BME280_pressure;Samples;Min_cycle;Max_cycle;Signal;HPM_P1;HPM_P2
2022/01/11 00:00:10;;;;;;;142.82;60.85;;;2.80;99.90;;;;;;5032946;28;20044;-70
2022/01/11 00:02:39;;;;;;;138.50;59.78;;;2.70;99.90;;;;;;5033603;28;20025;-70
2022/01/11 00:05:05;;;;;;;151.18;63.88;;;2.60;99.90;;;;;;5032038;28;20030;-70
2022/01/11 00:07:33;;;;;;;141.18;60.67;;;2.60;99.90;;;;;;5033220;28;20550;-70
2022/01/11 00:10:00;;;;;;;162.15;63.20;;;2.50;99.90;;;;;;5033267;28;20496;-70
2022/01/11 00:12:26;;;;;;;151.32;63.55;;;2.40;99.90;;;;;;5033121;28;20107;-70
2022/01/11 00:14:51;;;;;;;151.88;62.15;;;2.40;99.90;;;;;;5031902;28;20497;-70
2022/01/11 00:17:17;;;;;;;157.65;62.58;;;2.50;99.90;;;;;;5033084;28;20022;-70
2022/01/11 00:19:45;;;;;;;158.02;62.05;;;2.50;99.90;;;;;;5033107;28;20083;-70
2022/01/11 00:22:17;;;;;;;159.65;62.38;;;2.50;99.90;;;;;;5033094;28;20105;-70
2022/01/11 00:24:43;;;;;;;166.38;62.30;;;2.60;99.90;;;;;;5033222;28;20462;-70
2022/01/11 00:27:10;;;;;;;146.75;58.20;;;2.70;99.90;;;;;;5032984;28;20148;-70
2022/01/11 00:29:40;;;;;;;139.27;58.08;;;2.70;99.90;;;;;;5033051;28;20060;-70
2022/01/11 00:32:11;;;;;;;146.15;59.85;;;2.70;99.90;;;;;;5033315;28;20018;-70
2022/01/11 00:34:56;;;;;;;141.70;57.90;;;2.70;99.90;;;;;;5033331;28;20100;-70
2022/01/11 00:37:22;;;;;;;153.90;56.97;;;2.80;99.90;;;;;;5031689;28;20026;-70
2022/01/11 00:39:50;;;;;;;147.25;57.38;;;2.80;99.90;;;;;;5033218;28;20024;-70
2022/01/11 00:42:21;;;;;;;144.70;58.03;;;2.80;99.90;;;;;;5033239;28;20036;-70
2022/01/11 00:44:46;;;;;;;145.85;57.30;;;2.80;99.90;;;;;;5032899;28;20108;-70
2022/01/11 00:47:12;;;;;;;154.98;57.30;;;2.90;99.90;;;;;;5032786;28;20072;-70
2022/01/11 00:49:40;;;;;;;151.90;57.10;;;2.90;99.90;;;;;;5031559;28;20025;-70
2022/01/11 00:52:06;;;;;;;160.50;59.47;;;2.90;99.90;;;;;;5032429;28;20108;-70
2022/01/11 00:54:32;;;;;;;145.05;56.72;;;2.90;99.90;;;;;;5032828;28;20029;-70
2022/01/11 00:56:57;;;;;;;143.43;55.30;;;2.90;99.90;;;;;;5032827;28;20034;-70
2022/01/11 00:59:23;;;;;;;145.95;55.03;;;2.90;99.90;;;;;;5031497;28;20072;-70
2022/01/11 01:01:49;;;;;;;138.65;53.30;;;2.90;99.90;;;;;;5033043;28;20061;-70
2022/01/11 01:04:14;;;;;;;128.70;51.72;;;3.00;99.90;;;;;;5033257;28;20030;-70
2022/01/11 01:06:41;;;;;;;135.45;54.60;;;3.00;99.90;;;;;;5032897;28;20478;-70
2022/01/11 01:09:08;;;;;;;143.43;52.85;;;2.90;99.90;;;;;;5032998;28;20025;-70
2022/01/11 01:11:34;;;;;;;128.70;53.92;;;2.90;99.90;;;;;;5032556;28;20026;-70
2022/01/11 01:14:00;;;;;;;135.55;54.00;;;2.90;99.90;;;;;;5035775;28;20036;-70
2022/01/11 01:16:25;;;;;;;128.32;53.95;;;3.00;99.90;;;;;;5035127;28;20026;-70
2022/01/11 01:18:51;;;;;;;126.55;51.47;;;3.00;99.90;;;;;;5036332;28;20500;-70
2022/01/11 01:21:18;;;;;;;130.30;52.13;;;3.00;99.90;;;;;;5036308;28;20025;-70
2022/01/11 01:23:44;;;;;;;128.70;50.75;;;3.00;99.90;;;;;;5036474;28;20099;-70
2022/01/11 01:26:11;;;;;;;130.55;50.75;;;3.00;99.90;;;;;;5036041;28;20108;-70
2022/01/11 01:28:37;;;;;;;112.13;48.58;;;2.90;99.90;;;;;;5036201;28;20021;-70
2022/01/11 01:31:03;;;;;;;120.30;47.83;;;3.00;99.90;;;;;;5036177;28;20072;-70
2022/01/11 01:33:30;;;;;;;117.78;48.30;;;3.00;99.90;;;;;;5036033;28;20370;-70
2022/01/11 01:36:01;;;;;;;132.30;52.83;;;2.90;99.90;;;;;;5035945;28;20025;-70
2022/01/11 01:38:27;;;;;;;119.32;50.10;;;2.90;99.90;;;;;;5036270;28;20432;-70
2022/01/11 01:40:57;;;;;;;114.78;50.65;;;2.90;99.90;;;;;;5035918;28;20029;-70
2022/01/11 01:43:24;;;;;;;117.88;48.28;;;3.00;99.90;;;;;;5035822;28;20497;-70
2022/01/11 01:45:50;;;;;;;118.13;50.78;;;2.90;99.90;;;;;;5036016;28;20025;-70
2022/01/11 01:48:16;;;;;;;125.78;50.97;;;3.00;99.90;;;;;;5035848;28;20396;-70
2022/01/11 01:50:43;;;;;;;121.07;48.78;;;2.90;99.90;;;;;;5035706;28;20137;-70
2022/01/11 01:53:11;;;;;;;110.90;47.47;;;2.90;99.90;;;;;;5035690;28;20386;-70
2022/01/11 01:55:39;;;;;;;113.70;46.70;;;2.90;99.90;;;;;;5034345;28;20021;-70
2022/01/11 01:58:05;;;;;;;114.07;48.88;;;3.00;99.90;;;;;;5035568;28;20028;-70
2022/01/11 02:00:30;;;;;;;115.10;49.13;;;2.90;99.90;;;;;;5034252;28;20021;-70
2022/01/11 02:03:10;;;;;;;123.68;47.70;;;2.90;99.90;;;;;;5035813;28;20044;-70
2022/01/11 02:05:35;;;;;;;113.50;49.13;;;2.90;99.90;;;;;;5035438;28;20026;-70
2022/01/11 02:08:02;;;;;;;128.57;53.13;;;3.00;99.90;;;;;;5035416;28;20036;-70
2022/01/11 02:10:27;;;;;;;126.30;51.83;;;3.00;99.90;;;;;;5035651;28;20034;-70
2022/01/11 02:12:53;;;;;;;121.00;48.63;;;3.00;99.90;;;;;;5035211;28;20071;-70
2022/01/11 02:15:19;;;;;;;117.90;49.35;;;3.00;99.90;;;;;;5035242;28;20029;-70
2022/01/11 02:17:45;;;;;;;123.40;50.53;;;3.00;99.90;;;;;;5035087;28;20104;-70
2022/01/11 02:20:14;;;;;;;122.43;50.13;;;3.00;99.90;;;;;;5033927;28;20022;-70
2022/01/11 02:22:40;;;;;;;104.50;46.83;;;3.00;99.90;;;;;;5035398;28;20049;-70
2022/01/11 02:25:06;;;;;;;100.53;45.28;;;3.00;99.90;;;;;;5035033;28;20053;-70
2022/01/11 02:27:31;;;;;;;109.38;47.85;;;3.00;99.90;;;;;;5034974;28;20033;-70
2022/01/11 02:29:57;;;;;;;120.60;49.80;;;3.00;99.90;;;;;;5034943;28;20044;-70
2022/01/11 02:32:22;;;;;;;116.78;50.90;;;3.00;99.90;;;;;;5034907;28;20112;-70
2022/01/11 02:34:48;;;;;;;119.70;49.72;;;3.00;99.90;;;;;;5035167;28;20112;-70
2022/01/11 02:37:14;;;;;;;122.55;50.08;;;3.00;99.90;;;;;;5034858;28;20033;-70
2022/01/11 02:39:43;;;;;;;112.00;48.42;;;3.00;99.90;;;;;;5034852;28;20017;-70
2022/01/11 02:42:08;;;;;;;124.50;49.85;;;3.00;99.90;;;;;;5035087;28;20104;-70
2022/01/11 02:44:34;;;;;;;115.47;48.00;;;3.00;99.90;;;;;;5034702;28;20557;-70
2022/01/11 02:46:59;;;;;;;115.18;48.03;;;3.10;99.90;;;;;;5034593;28;20033;-70
2022/01/11 02:49:25;;;;;;;115.53;49.05;;;3.00;99.90;;;;;;5033528;28;20029;-70
2022/01/11 02:51:51;;;;;;;109.45;47.10;;;3.00;99.90;;;;;;5034574;28;20060;-70
2022/01/11 02:54:16;;;;;;;119.65;50.95;;;3.00;99.90;;;;;;5034822;28;20105;-70
2022/01/11 02:56:42;;;;;;;123.63;50.83;;;3.10;99.90;;;;;;5034422;28;20370;-70
2022/01/11 02:59:10;;;;;;;117.07;49.97;;;3.00;99.90;;;;;;5034478;28;20124;-70
2022/01/11 03:01:36;;;;;;;112.32;49.92;;;3.10;99.90;;;;;;5034687;28;20111;-70
2022/01/11 03:04:01;;;;;;;126.75;49.70;;;3.10;99.90;;;;;;5034380;28;20077;-70
2022/01/11 03:06:27;;;;;;;118.43;48.60;;;3.00;99.90;;;;;;5034238;28;20392;-70
2022/01/11 03:08:53;;;;;;;114.47;45.50;;;3.00;99.90;;;;;;5034288;28;20036;-70
2022/01/11 03:11:20;;;;;;;109.65;45.15;;;3.10;99.90;;;;;;5034077;28;20064;-70
2022/01/11 03:13:46;;;;;;;106.68;45.00;;;3.10;99.90;;;;;;5034183;28;20518;-70
2022/01/11 03:16:13;;;;;;;107.55;44.60;;;3.10;99.90;;;;;;5034027;28;20064;-70
2022/01/11 03:18:38;;;;;;;111.10;43.40;;;3.10;99.90;;;;;;5034381;28;20045;-70
2022/01/11 03:21:05;;;;;;;116.38;46.47;;;3.10;99.90;;;;;;5034010;28;20025;-70
2022/01/11 03:23:32;;;;;;;124.78;47.80;;;3.10;99.90;;;;;;5034073;28;20032;-70
2022/01/11 03:26:01;;;;;;;117.43;43.38;;;3.10;99.90;;;;;;5033682;28;20048;-70
2022/01/11 03:28:28;;;;;;;115.25;43.22;;;3.10;99.90;;;;;;5034199;28;20022;-70
2022/01/11 03:30:54;;;;;;;116.75;42.83;;;3.10;99.90;;;;;;5033809;28;20061;-70
2022/01/11 03:33:19;;;;;;;105.07;36.92;;;3.10;99.90;;;;;;5033766;28;20045;-70
2022/01/11 03:35:45;;;;;;;114.20;41.53;;;3.10;99.90;;;;;;5033110;28;20032;-70
2022/01/11 03:38:12;;;;;;;121.55;44.10;;;3.10;99.90;;;;;;5033971;28;20022;-70
2022/01/11 03:40:39;;;;;;;129.55;44.17;;;3.10;99.90;;;;;;5033733;28;20425;-70
2022/01/11 03:43:06;;;;;;;123.93;47.22;;;3.10;99.90;;;;;;5033779;28;20120;-70
2022/01/11 03:45:31;;;;;;;123.97;45.25;;;3.10;99.90;;;;;;5033782;28;20035;-70
2022/01/11 03:47:59;;;;;;;135.38;48.42;;;3.10;99.90;;;;;;5033823;28;20026;-70
2022/01/11 03:50:26;;;;;;;140.18;48.28;;;3.10;99.90;;;;;;5033780;28;20067;-70
2022/01/11 03:52:59;;;;;;;132.10;47.55;;;3.10;99.90;;;;;;5033438;28;20017;-70
2022/01/11 03:55:44;;;;;;;143.63;48.70;;;3.10;99.90;;;;;;5032209;28;20025;-70
2022/01/11 03:58:10;;;;;;;141.13;48.17;;;3.10;99.90;;;;;;5033447;28;20300;-70
2022/01/11 04:00:36;;;;;;;143.88;49.38;;;3.20;99.90;;;;;;5033513;28;20018;-70
2022/01/11 04:03:02;;;;;;;123.85;41.30;;;3.20;99.90;;;;;;5033371;28;20504;-70
2022/01/11 04:05:27;;;;;;;132.32;43.65;;;3.20;99.90;;;;;;5033569;28;20025;-70
2022/01/11 04:07:53;;;;;;;130.60;41.60;;;3.20;99.90;;;;;;5033284;28;20389;-70
2022/01/11 04:10:18;;;;;;;140.90;43.60;;;3.20;99.90;;;;;;5033273;28;20100;-70
2022/01/11 04:12:47;;;;;;;129.95;42.22;;;3.20;99.90;;;;;;5033153;28;20061;-70
2022/01/11 04:15:13;;;;;;;121.32;40.72;;;3.10;99.90;;;;;;5033028;28;20071;-70
2022/01/11 04:17:39;;;;;;;135.98;43.58;;;3.20;99.90;;;;;;5033091;28;20029;-70
2022/01/11 04:20:05;;;;;;;134.80;41.65;;;3.20;99.90;;;;;;5033098;28;20032;-70
2022/01/11 04:22:30;;;;;;;117.15;37.90;;;3.20;99.90;;;;;;5033401;28;20432;-70
2022/01/11 04:24:56;;;;;;;121.78;39.20;;;3.20;99.90;;;;;;5033140;28;20029;-70
2022/01/11 04:27:21;;;;;;;128.70;39.88;;;3.20;99.90;;;;;;5032848;28;20516;-70
2022/01/11 04:29:47;;;;;;;118.30;40.72;;;3.30;99.90;;;;;;5033066;28;20504;-70
2022/01/11 04:32:13;;;;;;;137.43;41.50;;;3.30;99.90;;;;;;5033209;28;20362;-70
2022/01/11 04:34:38;;;;;;;122.35;37.28;;;3.20;99.90;;;;;;5033308;28;20048;-70
2022/01/11 04:37:04;;;;;;;129.05;37.95;;;3.30;99.90;;;;;;5032902;28;20029;-70
2022/01/11 04:39:29;;;;;;;140.38;38.53;;;3.30;99.90;;;;;;5032985;28;20026;-70
2022/01/11 04:41:55;;;;;;;105.25;33.78;;;3.30;99.90;;;;;;5032892;28;20025;-70
2022/01/11 04:44:21;;;;;;;128.40;40.25;;;3.30;99.90;;;;;;5032875;28;20109;-70
2022/01/11 04:46:46;;;;;;;127.80;38.50;;;3.30;99.90;;;;;;5034027;28;20038;-70
2022/01/11 04:49:12;;;;;;;123.85;35.58;;;3.20;99.90;;;;;;5036896;28;20036;-70
2022/01/11 04:51:38;;;;;;;123.25;36.97;;;3.20;99.90;;;;;;5036779;28;20025;-70
2022/01/11 04:54:03;;;;;;;118.63;35.90;;;3.30;99.90;;;;;;5036842;28;20481;-70
2022/01/11 04:56:29;;;;;;;130.80;38.15;;;3.30;99.90;;;;;;5036672;28;20049;-70
2022/01/11 04:58:56;;;;;;;114.75;35.72;;;3.30;99.90;;;;;;5036725;28;20100;-70
2022/01/11 05:01:22;;;;;;;121.45;35.60;;;3.30;99.90;;;;;;5036793;28;20374;-70
2022/01/11 05:03:47;;;;;;;132.32;36.80;;;3.30;99.90;;;;;;5036636;28;20033;-70
2022/01/11 05:06:13;;;;;;;124.38;36.58;;;3.30;99.90;;;;;;5036542;28;20033;-70
2022/01/11 05:08:39;;;;;;;130.80;36.42;;;3.40;99.90;;;;;;5036553;28;20030;-70
2022/01/11 05:11:05;;;;;;;131.73;39.45;;;3.30;99.90;;;;;;5036935;28;20025;-70
2022/01/11 05:13:34;;;;;;;128.90;39.47;;;3.30;99.90;;;;;;5036549;28;20056;-70
2022/01/11 05:16:02;;;;;;;134.88;39.88;;;3.30;99.90;;;;;;5035132;28;20115;-70
2022/01/11 05:18:29;;;;;;;122.75;38.50;;;3.30;99.90;;;;;;5035101;28;20092;-70
2022/01/11 05:20:54;;;;;;;140.82;42.17;;;3.30;99.90;;;;;;5036551;28;20504;-70
2022/01/11 05:23:20;;;;;;;149.93;42.42;;;3.30;99.90;;;;;;5036506;28;20026;-70
2022/01/11 05:25:46;;;;;;;141.23;41.47;;;3.30;99.90;;;;;;5036049;28;20095;-70
2022/01/11 05:28:12;;;;;;;135.27;40.22;;;3.30;99.90;;;;;;5036195;28;20087;-70
2022/01/11 05:30:37;;;;;;;148.02;42.92;;;3.30;99.90;;;;;;5036318;28;20363;-70
2022/01/11 05:33:03;;;;;;;138.18;41.65;;;3.30;99.90;;;;;;5036287;28;20041;-70
2022/01/11 05:35:29;;;;;;;148.82;41.95;;;3.30;99.90;;;;;;5036251;28;20032;-70
2022/01/11 05:37:55;;;;;;;144.18;42.65;;;3.30;99.90;;;;;;5035991;28;20021;-70
2022/01/11 05:40:21;;;;;;;162.93;45.40;;;3.40;99.90;;;;;;5035945;28;20113;-70
2022/01/11 05:42:49;;;;;;;144.18;42.03;;;3.30;99.90;;;;;;5036153;28;20033;-70
2022/01/11 05:45:16;;;;;;;157.38;46.33;;;3.40;99.90;;;;;;5036154;28;20025;-70
2022/01/11 05:47:42;;;;;;;158.85;42.13;;;3.40;99.90;;;;;;5035656;28;20568;-70
2022/01/11 05:50:10;;;;;;;154.73;42.95;;;3.40;99.90;;;;;;5035813;28;20117;-70
2022/01/11 05:52:38;;;;;;;152.63;42.42;;;3.40;99.90;;;;;;5035744;28;20036;-70
2022/01/11 05:55:06;;;;;;;149.05;39.72;;;3.40;99.90;;;;;;5035721;28;20025;-70
2022/01/11 05:57:31;;;;;;;129.80;39.22;;;3.40;99.90;;;;;;5035542;28;20056;-70
2022/01/11 05:59:57;;;;;;;132.50;38.08;;;3.40;99.90;;;;;;5034894;28;20034;-70
2022/01/11 06:02:23;;;;;;;149.98;39.58;;;3.40;99.90;;;;;;5035514;28;20025;-70
2022/01/11 06:04:48;;;;;;;156.60;39.95;;;3.40;99.90;;;;;;5035500;28;20021;-70
2022/01/11 06:07:14;;;;;;;121.82;40.70;;;3.40;99.90;;;;;;5035682;28;20063;-70
2022/01/11 06:09:39;;;;;;;150.10;39.42;;;3.40;99.90;;;;;;5035448;28;20030;-70
2022/01/11 06:12:06;;;;;;;157.25;42.03;;;3.40;99.90;;;;;;5035553;28;20030;-70
2022/01/11 06:14:31;;;;;;;144.23;39.83;;;3.40;99.90;;;;;;5035979;28;20040;-70
2022/01/11 06:16:57;;;;;;;161.75;40.00;;;3.40;99.90;;;;;;5035753;28;20465;-70
2022/01/11 06:19:23;;;;;;;138.95;40.25;;;3.40;99.90;;;;;;5035768;28;20021;-70
2022/01/11 06:21:48;;;;;;;146.77;39.20;;;3.40;99.90;;;;;;5035223;28;20480;-70
2022/01/11 06:24:14;;;;;;;146.18;42.33;;;3.40;99.90;;;;;;5035140;28;20029;-70
2022/01/11 06:26:41;;;;;;;157.57;41.90;;;3.40;99.90;;;;;;5035001;28;20552;-70
2022/01/11 06:29:07;;;;;;;145.32;42.88;;;3.40;99.90;;;;;;5035337;28;20028;-70
2022/01/11 06:31:34;;;;;;;164.73;43.05;;;3.40;99.90;;;;;;5034776;28;20025;-70
2022/01/11 06:34:00;;;;;;;146.05;43.72;;;3.40;99.90;;;;;;5034901;28;20018;-70
2022/01/11 06:36:25;;;;;;;169.18;42.72;;;3.50;99.90;;;;;;5034847;28;20370;-70
2022/01/11 06:38:51;;;;;;;169.93;41.63;;;3.50;99.90;;;;;;5034832;28;20556;-70
2022/01/11 06:41:16;;;;;;;164.10;43.28;;;3.50;99.90;;;;;;5034791;28;20029;-70
2022/01/11 06:43:42;;;;;;;142.05;40.40;;;3.40;99.90;;;;;;5035051;28;20029;-70
2022/01/11 06:46:08;;;;;;;135.15;39.72;;;3.40;99.90;;;;;;5034849;28;20477;-70
2022/01/11 06:48:34;;;;;;;129.10;41.88;;;3.40;99.90;;;;;;5035025;28;20123;-70
2022/01/11 06:50:59;;;;;;;158.23;42.28;;;3.40;99.90;;;;;;5034873;28;20043;-70
2022/01/11 06:53:25;;;;;;;132.10;38.67;;;3.40;99.90;;;;;;5034539;28;20079;-70
2022/01/11 06:55:53;;;;;;;144.65;39.00;;;3.40;99.90;;;;;;5034491;28;20025;-70
2022/01/11 06:58:19;;;;;;;121.95;37.20;;;3.30;99.90;;;;;;5034515;28;20021;-70
2022/01/11 07:00:44;;;;;;;139.35;39.85;;;3.30;99.90;;;;;;5034715;28;20057;-70
2022/01/11 07:03:10;;;;;;;126.35;39.03;;;3.30;99.90;;;;;;5034402;28;20057;-70
2022/01/11 07:05:36;;;;;;;126.18;37.30;;;3.30;99.90;;;;;;5034273;28;20052;-70
2022/01/11 07:08:01;;;;;;;125.72;39.20;;;3.30;99.90;;;;;;5034315;28;20017;-70
2022/01/11 07:10:27;;;;;;;148.38;40.10;;;3.30;99.90;;;;;;5033511;28;20033;-70
2022/01/11 07:12:53;;;;;;;153.85;39.92;;;3.30;99.90;;;;;;5034095;28;20029;-70
2022/01/11 07:15:18;;;;;;;134.25;39.85;;;3.30;99.90;;;;;;5032893;28;20026;-70
2022/01/11 07:17:44;;;;;;;155.55;41.65;;;3.30;99.90;;;;;;5034024;28;20014;-70
2022/01/11 07:20:10;;;;;;;139.30;40.85;;;3.20;99.90;;;;;;5034390;28;20021;-70
2022/01/11 07:22:39;;;;;;;137.85;39.15;;;3.20;99.90;;;;;;5034294;28;20032;-70
2022/01/11 07:25:06;;;;;;;124.35;41.13;;;3.20;99.90;;;;;;5034295;28;20029;-70
2022/01/11 07:27:33;;;;;;;161.02;42.22;;;3.30;99.90;;;;;;5033792;28;20056;-70
2022/01/11 07:30:00;;;;;;;165.43;46.05;;;3.30;99.90;;;;;;5032655;28;20116;-70
2022/01/11 07:32:25;;;;;;;141.80;40.80;;;3.30;99.90;;;;;;5034046;28;20075;-70
2022/01/11 07:34:51;;;;;;;139.45;44.10;;;3.30;99.90;;;;;;5033756;28;20026;-70
2022/01/11 07:37:16;;;;;;;145.25;46.28;;;3.30;99.90;;;;;;5033429;28;20021;-70
2022/01/11 07:39:42;;;;;;;134.57;40.78;;;3.30;99.90;;;;;;5033705;28;20033;-70
2022/01/11 07:42:08;;;;;;;150.43;41.55;;;3.20;99.90;;;;;;5034443;28;20060;-70
2022/01/11 07:44:33;;;;;;;141.95;41.03;;;3.20;99.90;;;;;;5034154;28;20040;-70
2022/01/11 07:47:02;;;;;;;153.43;41.58;;;3.20;99.90;;;;;;5033765;28;20030;-70
2022/01/11 07:49:27;;;;;;;162.70;44.08;;;3.20;99.90;;;;;;5032338;28;20026;-70
2022/01/11 07:51:53;;;;;;;142.32;40.35;;;3.20;99.90;;;;;;5033480;28;20026;-70
2022/01/11 07:54:18;;;;;;;155.13;42.08;;;3.20;99.90;;;;;;5033517;28;20026;-70
2022/01/11 07:56:44;;;;;;;177.60;44.03;;;3.20;99.90;;;;;;5033395;28;20092;-70
2022/01/11 07:59:11;;;;;;;166.85;45.15;;;3.20;99.90;;;;;;5033517;28;20037;-70
2022/01/11 08:01:37;;;;;;;164.68;43.80;;;3.20;99.90;;;;;;5033408;28;20029;-70
2022/01/11 08:04:03;;;;;;;163.07;44.53;;;3.20;99.90;;;;;;5033429;28;20377;-70
2022/01/11 08:06:28;;;;;;;152.07;40.22;;;3.10;99.90;;;;;;5033296;28;20397;-70
2022/01/11 08:08:54;;;;;;;158.73;40.60;;;3.10;99.90;;;;;;5033263;28;20021;-70
2022/01/11 08:11:19;;;;;;;149.35;40.45;;;3.10;99.90;;;;;;5031959;28;20021;-70
2022/01/11 08:13:45;;;;;;;186.13;48.20;;;3.00;99.90;;;;;;5033193;28;20064;-70
2022/01/11 08:16:11;;;;;;;185.77;46.67;;;3.00;99.90;;;;;;5033313;28;20101;-70
2022/01/11 08:18:36;;;;;;;153.70;41.90;;;3.00;99.90;;;;;;5033483;28;20462;-70
2022/01/11 08:21:02;;;;;;;181.77;47.53;;;3.00;99.90;;;;;;5032812;28;20104;-70
2022/01/11 08:23:27;;;;;;;176.77;49.05;;;3.00;99.90;;;;;;5033136;28;20025;-70
2022/01/11 08:25:53;;;;;;;185.95;47.65;;;3.00;99.90;;;;;;5032982;28;20100;-70
2022/01/11 08:28:20;;;;;;;187.90;48.22;;;3.00;99.90;;;;;;5033292;28;20126;-70
2022/01/11 08:30:45;;;;;;;191.93;48.83;;;3.00;99.90;;;;;;5033114;28;20057;-70
2022/01/11 08:33:12;;;;;;;193.30;49.10;;;3.00;99.90;;;;;;5033258;28;20026;-70
2022/01/11 08:35:38;;;;;;;173.63;43.53;;;3.00;99.90;;;;;;5033011;28;20018;-70
2022/01/11 08:38:04;;;;;;;192.10;45.78;;;3.10;99.90;;;;;;5033039;28;20020;-70
2022/01/11 08:40:30;;;;;;;181.02;45.30;;;3.10;99.90;;;;;;5033011;28;20025;-70
2022/01/11 08:42:56;;;;;;;163.65;42.78;;;3.00;99.90;;;;;;5033002;28;20030;-70
2022/01/11 08:45:22;;;;;;;178.88;45.33;;;3.00;99.90;;;;;;5033062;28;20473;-70
2022/01/11 08:47:47;;;;;;;151.73;41.28;;;2.90;99.90;;;;;;5033101;28;20397;-70
2022/01/11 08:50:13;;;;;;;184.70;45.33;;;3.00;99.90;;;;;;5031648;28;20032;-70
2022/01/11 08:52:41;;;;;;;137.25;38.20;;;3.00;99.90;;;;;;5031541;28;20481;-71
2022/01/11 08:55:08;;;;;;;141.73;35.60;;;3.00;99.90;;;;;;5033273;28;20017;-70
2022/01/11 08:57:35;;;;;;;155.00;39.97;;;3.00;99.90;;;;;;5032991;28;20385;-70
2022/01/11 09:00:03;;;;;;;131.60;36.22;;;2.90;99.90;;;;;;5031577;28;20473;-70
2022/01/11 09:02:29;;;;;;;123.93;36.20;;;2.80;99.90;;;;;;5032776;28;20492;-70
2022/01/11 09:04:55;;;;;;;133.75;37.08;;;2.80;99.90;;;;;;5032790;28;20025;-70
2022/01/11 09:07:21;;;;;;;141.52;38.80;;;2.80;99.90;;;;;;5032718;28;20032;-70
2022/01/11 09:09:47;;;;;;;128.82;37.38;;;2.70;99.90;;;;;;5032737;28;20049;-70
2022/01/11 09:12:15;;;;;;;140.65;37.40;;;2.80;99.90;;;;;;5032656;28;20108;-70
2022/01/11 09:14:41;;;;;;;134.50;38.85;;;2.70;99.90;;;;;;5032667;28;20112;-70
2022/01/11 09:17:07;;;;;;;159.70;41.13;;;2.70;99.90;;;;;;5032575;28;20071;-70
2022/01/11 09:19:33;;;;;;;146.60;43.03;;;2.70;99.90;;;;;;5032947;28;20033;-70
2022/01/11 09:21:59;;;;;;;166.00;43.17;;;2.70;99.90;;;;;;5032850;28;20064;-71
2022/01/11 09:24:29;;;;;;;177.38;47.15;;;2.80;99.90;;;;;;5032846;28;20428;-70
2022/01/11 09:26:59;;;;;;;193.15;51.00;;;2.80;99.90;;;;;;5032309;28;20038;-70
2022/01/11 09:29:26;;;;;;;187.65;47.40;;;2.90;99.90;;;;;;5033130;28;20396;-70
2022/01/11 09:31:53;;;;;;;194.65;52.05;;;2.90;99.90;;;;;;5032511;28;20030;-70
2022/01/11 09:34:18;;;;;;;158.88;47.90;;;2.90;99.90;;;;;;5033134;28;20047;-70
2022/01/11 09:36:44;;;;;;;184.95;47.90;;;2.90;99.90;;;;;;5035997;28;20026;-70
2022/01/11 09:39:10;;;;;;;164.82;46.80;;;2.90;99.90;;;;;;5036018;28;20389;-70
2022/01/11 09:41:35;;;;;;;166.55;45.22;;;2.70;99.90;;;;;;5034727;28;20083;-70
2022/01/11 09:44:01;;;;;;;158.05;45.65;;;2.70;99.90;;;;;;5035980;28;20022;-70
2022/01/11 09:46:28;;;;;;;176.82;49.53;;;2.70;99.90;;;;;;5035853;28;20030;-70
2022/01/11 09:48:54;;;;;;;158.15;46.88;;;2.70;99.90;;;;;;5035877;28;20022;-70
2022/01/11 09:51:20;;;;;;;177.10;51.92;;;2.70;99.90;;;;;;5035777;28;20100;-70
2022/01/11 09:53:46;;;;;;;174.35;51.03;;;2.70;99.90;;;;;;5035789;28;20450;-70
2022/01/11 09:56:13;;;;;;;191.73;50.58;;;2.70;99.90;;;;;;5035706;28;20033;-70
2022/01/11 09:58:39;;;;;;;177.25;49.90;;;2.70;99.90;;;;;;5035688;28;20385;-70
2022/01/11 10:01:05;;;;;;;188.52;52.85;;;2.70;99.90;;;;;;5035877;28;20029;-70
2022/01/11 10:03:31;;;;;;;172.70;53.22;;;2.80;99.90;;;;;;5035742;28;20021;-70
2022/01/11 10:06:12;;;;;;;199.55;53.45;;;2.80;99.90;;;;;;5035535;28;20021;-70
2022/01/11 10:08:38;;;;;;;171.70;49.35;;;2.80;99.90;;;;;;5035705;28;20021;-70
2022/01/11 10:11:03;;;;;;;167.13;49.28;;;2.80;99.90;;;;;;5035362;28;20562;-70
2022/01/11 10:13:29;;;;;;;200.15;54.92;;;2.80;99.90;;;;;;5035443;28;20041;-70
2022/01/11 10:15:54;;;;;;;186.20;54.38;;;2.90;99.90;;;;;;5035245;28;20071;-70
2022/01/11 10:18:35;;;;;;;190.05;52.53;;;3.00;99.90;;;;;;5035847;28;20061;-70
2022/01/11 10:21:01;;;;;;;193.93;53.13;;;3.20;99.90;;;;;;5035251;28;20045;-71
2022/01/11 10:23:34;;;;;;;182.02;53.40;;;3.20;99.90;;;;;;5035208;28;20080;-70
2022/01/11 10:26:00;;;;;;;185.38;54.83;;;3.20;99.90;;;;;;5035266;28;20041;-70
2022/01/11 10:28:34;;;;;;;182.40;55.70;;;3.20;99.90;;;;;;5035049;28;20025;-70
2022/01/11 10:31:00;;;;;;;189.82;55.33;;;3.20;99.90;;;;;;5035255;28;20018;-70
2022/01/11 10:33:26;;;;;;;186.63;56.45;;;3.20;99.90;;;;;;5035006;28;20049;-70
2022/01/11 10:35:51;;;;;;;186.10;54.78;;;3.20;99.90;;;;;;5034942;28;20072;-70
2022/01/11 10:38:26;;;;;;;203.50;60.10;;;3.30;99.90;;;;;;5034913;28;20481;-70
2022/01/11 10:40:52;;;;;;;193.52;55.88;;;3.30;99.90;;;;;;5033661;28;20512;-70
2022/01/11 10:43:20;;;;;;;156.43;54.95;;;3.30;99.90;;;;;;5035070;28;20037;-70
2022/01/11 10:45:49;;;;;;;168.25;56.40;;;3.30;99.90;;;;;;5034388;28;20030;-70
2022/01/11 10:48:21;;;;;;;169.05;54.42;;;3.30;99.90;;;;;;5034984;28;20026;-70
2022/01/11 10:50:52;;;;;;;162.73;54.33;;;3.30;99.90;;;;;;5034772;28;20029;-70
2022/01/11 10:53:49;;;;;;;161.65;53.70;;;3.30;99.90;;;;;;5034732;28;20131;-70
2022/01/11 10:56:16;;;;;;;143.63;50.05;;;3.30;99.90;;;;;;5033658;28;20507;-70
2022/01/11 10:58:42;;;;;;;152.18;52.38;;;3.30;99.90;;;;;;5034771;28;20424;-70
2022/01/11 11:01:10;;;;;;;154.25;53.45;;;3.40;99.90;;;;;;5033206;28;20024;-70
2022/01/11 11:03:38;;;;;;;165.88;55.22;;;3.40;99.90;;;;;;5033204;28;20543;-70
2022/01/11 11:06:10;;;;;;;159.13;54.08;;;3.40;99.90;;;;;;5033066;28;20029;-70
2022/01/11 11:08:40;;;;;;;153.40;56.72;;;3.50;99.90;;;;;;5034366;28;20022;-70
2022/01/11 11:11:08;;;;;;;155.32;53.65;;;3.40;99.90;;;;;;5033039;28;20021;-70
2022/01/11 11:13:41;;;;;;;150.93;53.45;;;3.30;99.90;;;;;;5034143;28;20048;-70
2022/01/11 11:16:11;;;;;;;152.52;50.88;;;3.30;99.90;;;;;;5034476;28;20029;-70
2022/01/11 11:18:43;;;;;;;149.68;49.78;;;3.20;99.90;;;;;;5034122;28;20083;-70
2022/01/11 11:21:21;;;;;;;143.05;50.33;;;3.20;99.90;;;;;;5034464;28;20029;-70
2022/01/11 11:23:49;;;;;;;153.52;52.78;;;3.20;99.90;;;;;;5034378;28;20024;-70
2022/01/11 11:26:17;;;;;;;161.13;53.20;;;3.30;99.90;;;;;;5034161;28;20033;-70
2022/01/11 11:28:42;;;;;;;154.80;53.28;;;3.30;99.90;;;;;;5034211;28;20033;-70
2022/01/11 11:31:08;;;;;;;156.05;51.78;;;3.30;99.90;;;;;;5034081;28;20021;-70
2022/01/11 11:33:37;;;;;;;134.43;50.28;;;3.30;99.90;;;;;;5033915;28;20071;-70
2022/01/11 11:36:05;;;;;;;142.60;48.90;;;3.30;99.90;;;;;;5033812;28;20037;-70
2022/01/11 11:38:33;;;;;;;146.32;49.53;;;3.20;99.90;;;;;;5033879;28;20022;-70
2022/01/11 12:41:52;;;;;;;107.47;38.38;;;3.50;99.90;;;;;;5338820;22;20045;-68
2022/01/11 12:47:12;;;;;;;96.35;37.72;;;3.50;99.90;;;;;;5033422;28;20079;-68
2022/01/11 12:49:41;;;;;;;96.22;36.95;;;3.50;99.90;;;;;;5033448;28;20022;-68
2022/01/11 12:52:12;;;;;;;111.93;42.58;;;3.60;99.90;;;;;;5032810;28;20029;-68
2022/01/11 12:54:40;;;;;;;95.50;36.75;;;3.60;99.90;;;;;;5033690;28;20018;-69
2022/01/11 12:57:12;;;;;;;77.97;32.85;;;3.60;99.90;;;;;;5033056;28;20032;-69
2022/01/11 12:59:39;;;;;;;87.05;34.92;;;3.50;99.90;;;;;;5033043;28;20079;-69
2022/01/11 13:02:15;;;;;;;85.85;34.75;;;3.60;99.90;;;;;;5032931;28;20025;-69
2022/01/11 13:04:53;;;;;;;75.43;32.63;;;3.60;99.90;;;;;;5033303;28;20165;-69
2022/01/11 13:07:24;;;;;;;73.72;31.20;;;3.60;99.90;;;;;;5033957;28;20028;-69
2022/01/11 13:10:14;;;;;;;66.38;32.05;;;3.70;99.90;;;;;;5036827;28;20025;-69
2022/01/11 13:12:42;;;;;;;76.45;32.63;;;3.60;99.90;;;;;;5036672;28;20048;-69
2022/01/11 13:15:15;;;;;;;86.53;32.45;;;3.60;99.90;;;;;;5036719;28;20104;-69
2022/01/11 13:18:11;;;;;;;83.13;31.60;;;3.70;99.90;;;;;;5036989;28;20076;-69
2022/01/11 13:20:37;;;;;;;75.50;30.73;;;3.70;99.90;;;;;;5036842;28;20026;-69
2022/01/11 13:28:16;;;;;;;69.72;29.30;;;3.70;99.90;;;;;;5221403;22;20060;-69
2022/01/11 13:30:46;;;;;;;74.55;31.25;;;3.70;99.90;;;;;;5056338;28;20025;-69
2022/01/11 13:33:28;;;;;;;69.93;28.65;;;3.80;99.90;;;;;;5056484;28;20060;-69
2022/01/11 13:35:55;;;;;;;64.82;28.63;;;3.70;99.90;;;;;;5056311;28;20447;-69